Terminal Aerodrome Forecast
Issued by NWS

Home | Current Version | Previous Version | Text Only | Print | Product List | Glossary On
Versions: 1 2 3 4 5 6 7 8 9 10 11 12
000
FTUS46 KSGX 050520
TAFTRM
TAF
KTRM 050520Z 0506/0606 34014KT P6SM SKC
     FM050900 33007KT P6SM FEW250
     FM051200 VRB04KT P6SM SCT250
     FM060400 33012KT P6SM SKC=

USA.gov is the U.S. government's official web portal to all federal, state and local government web resources and services.